sensor_id;sensor_type;location;lat;lon;timestamp;P1;durP1;ratioP1;P2;durP2;ratioP2
19595;SDS011;9945;46.010;8.946;2023-06-22T00:01:12;9.57;;;7.90;;
19595;SDS011;9945;46.010;8.946;2023-06-22T00:03:39;10.00;;;7.40;;
19595;SDS011;9945;46.010;8.946;2023-06-22T00:06:06;17.45;;;8.07;;
19595;SDS011;9945;46.010;8.946;2023-06-22T00:08:32;9.07;;;7.55;;
19595;SDS011;9945;46.010;8.946;2023-06-22T00:11:01;16.92;;;8.65;;
19595;SDS011;9945;46.010;8.946;2023-06-22T00:13:27;12.35;;;7.88;;
19595;SDS011;9945;46.010;8.946;2023-06-22T00:15:54;10.25;;;7.70;;
19595;SDS011;9945;46.010;8.946;2023-06-22T00:18:21;8.35;;;7.53;;
19595;SDS011;9945;46.010;8.946;2023-06-22T00:20:53;14.25;;;8.20;;
19595;SDS011;9945;46.010;8.946;2023-06-22T00:23:22;9.82;;;8.07;;
19595;SDS011;9945;46.010;8.946;2023-06-22T00:25:50;9.10;;;8.20;;
19595;SDS011;9945;46.010;8.946;2023-06-22T00:28:18;10.45;;;7.75;;
19595;SDS011;9945;46.010;8.946;2023-06-22T00:30:45;9.77;;;7.47;;
19595;SDS011;9945;46.010;8.946;2023-06-22T00:33:12;11.65;;;7.88;;
19595;SDS011;9945;46.010;8.946;2023-06-22T00:35:41;16.67;;;8.15;;
19595;SDS011;9945;46.010;8.946;2023-06-22T00:38:08;14.90;;;7.68;;
19595;SDS011;9945;46.010;8.946;2023-06-22T00:40:35;10.18;;;8.23;;
19595;SDS011;9945;46.010;8.946;2023-06-22T00:43:02;9.55;;;7.00;;
19595;SDS011;9945;46.010;8.946;2023-06-22T00:45:31;14.27;;;7.13;;
19595;SDS011;9945;46.010;8.946;2023-06-22T00:47:58;14.35;;;8.80;;
19595;SDS011;9945;46.010;8.946;2023-06-22T00:50:26;11.52;;;7.60;;
19595;SDS011;9945;46.010;8.946;2023-06-22T00:52:58;9.85;;;7.70;;
19595;SDS011;9945;46.010;8.946;2023-06-22T00:55:27;13.23;;;7.78;;
19595;SDS011;9945;46.010;8.946;2023-06-22T00:57:54;10.18;;;8.00;;
19595;SDS011;9945;46.010;8.946;2023-06-22T01:00:22;8.75;;;6.97;;
19595;SDS011;9945;46.010;8.946;2023-06-22T01:02:52;8.32;;;7.38;;
19595;SDS011;9945;46.010;8.946;2023-06-22T01:05:19;10.98;;;7.30;;
19595;SDS011;9945;46.010;8.946;2023-06-22T01:07:53;11.63;;;7.43;;
19595;SDS011;9945;46.010;8.946;2023-06-22T01:10:30;11.25;;;6.70;;
19595;SDS011;9945;46.010;8.946;2023-06-22T01:13:06;11.55;;;7.80;;
19595;SDS011;9945;46.010;8.946;2023-06-22T01:15:49;15.40;;;7.03;;
19595;SDS011;9945;46.010;8.946;2023-06-22T01:18:23;13.30;;;7.13;;
19595;SDS011;9945;46.010;8.946;2023-06-22T01:20:52;14.48;;;7.90;;
19595;SDS011;9945;46.010;8.946;2023-06-22T01:23:22;8.98;;;7.13;;
19595;SDS011;9945;46.010;8.946;2023-06-22T01:25:57;9.77;;;7.50;;
19595;SDS011;9945;46.010;8.946;2023-06-22T01:31:16;12.90;;;6.95;;
19595;SDS011;9945;46.010;8.946;2023-06-22T01:33:47;13.55;;;6.95;;
19595;SDS011;9945;46.010;8.946;2023-06-22T01:36:16;14.45;;;7.53;;
19595;SDS011;9945;46.010;8.946;2023-06-22T01:38:44;9.40;;;7.40;;
19595;SDS011;9945;46.010;8.946;2023-06-22T01:41:13;11.13;;;7.60;;
19595;SDS011;9945;46.010;8.946;2023-06-22T01:43:41;13.02;;;7.53;;
19595;SDS011;9945;46.010;8.946;2023-06-22T01:46:10;12.90;;;7.05;;
19595;SDS011;9945;46.010;8.946;2023-06-22T01:48:38;14.85;;;6.65;;
19595;SDS011;9945;46.010;8.946;2023-06-22T01:51:05;11.57;;;6.97;;
19595;SDS011;9945;46.010;8.946;2023-06-22T01:53:32;8.68;;;6.93;;
19595;SDS011;9945;46.010;8.946;2023-06-22T01:55:59;9.15;;;7.20;;
19595;SDS011;9945;46.010;8.946;2023-06-22T01:58:27;10.32;;;6.90;;
19595;SDS011;9945;46.010;8.946;2023-06-22T02:00:56;12.50;;;6.75;;
19595;SDS011;9945;46.010;8.946;2023-06-22T02:03:31;12.80;;;7.28;;
19595;SDS011;9945;46.010;8.946;2023-06-22T02:06:03;10.65;;;6.85;;
19595;SDS011;9945;46.010;8.946;2023-06-22T02:08:35;12.20;;;7.68;;
19595;SDS011;9945;46.010;8.946;2023-06-22T02:11:06;7.72;;;6.80;;
19595;SDS011;9945;46.010;8.946;2023-06-22T02:13:34;7.72;;;6.47;;
19595;SDS011;9945;46.010;8.946;2023-06-22T02:16:02;12.07;;;6.95;;
19595;SDS011;9945;46.010;8.946;2023-06-22T02:18:31;9.77;;;7.00;;
19595;SDS011;9945;46.010;8.946;2023-06-22T02:21:00;8.25;;;6.70;;
19595;SDS011;9945;46.010;8.946;2023-06-22T02:23:27;8.43;;;6.40;;
19595;SDS011;9945;46.010;8.946;2023-06-22T02:25:54;9.55;;;6.55;;
19595;SDS011;9945;46.010;8.946;2023-06-22T02:28:21;9.13;;;6.70;;
19595;SDS011;9945;46.010;8.946;2023-06-22T02:30:48;12.43;;;6.95;;
19595;SDS011;9945;46.010;8.946;2023-06-22T02:33:15;11.70;;;6.88;;
19595;SDS011;9945;46.010;8.946;2023-06-22T02:35:43;10.20;;;6.65;;
19595;SDS011;9945;46.010;8.946;2023-06-22T02:38:14;11.55;;;6.43;;
19595;SDS011;9945;46.010;8.946;2023-06-22T02:40:42;11.70;;;7.43;;
19595;SDS011;9945;46.010;8.946;2023-06-22T02:43:09;12.75;;;6.97;;
19595;SDS011;9945;46.010;8.946;2023-06-22T02:45:36;14.00;;;7.47;;
19595;SDS011;9945;46.010;8.946;2023-06-22T02:48:03;9.45;;;7.38;;
19595;SDS011;9945;46.010;8.946;2023-06-22T02:50:31;9.98;;;6.78;;
19595;SDS011;9945;46.010;8.946;2023-06-22T02:52:59;8.23;;;6.68;;
19595;SDS011;9945;46.010;8.946;2023-06-22T02:55:26;12.05;;;6.85;;
19595;SDS011;9945;46.010;8.946;2023-06-22T02:57:52;9.18;;;6.88;;
19595;SDS011;9945;46.010;8.946;2023-06-22T03:00:19;9.82;;;7.30;;
19595;SDS011;9945;46.010;8.946;2023-06-22T03:02:47;9.15;;;7.03;;
19595;SDS011;9945;46.010;8.946;2023-06-22T03:05:15;11.25;;;6.40;;
19595;SDS011;9945;46.010;8.946;2023-06-22T03:07:43;15.57;;;7.07;;
19595;SDS011;9945;46.010;8.946;2023-06-22T03:10:12;11.48;;;6.97;;
19595;SDS011;9945;46.010;8.946;2023-06-22T03:12:40;13.50;;;7.22;;
19595;SDS011;9945;46.010;8.946;2023-06-22T03:15:08;15.23;;;6.85;;
19595;SDS011;9945;46.010;8.946;2023-06-22T03:17:36;14.23;;;7.68;;
19595;SDS011;9945;46.010;8.946;2023-06-22T03:20:04;14.48;;;6.82;;
19595;SDS011;9945;46.010;8.946;2023-06-22T03:22:34;14.43;;;7.63;;
19595;SDS011;9945;46.010;8.946;2023-06-22T03:25:01;13.77;;;7.45;;
19595;SDS011;9945;46.010;8.946;2023-06-22T03:27:29;10.80;;;8.55;;
19595;SDS011;9945;46.010;8.946;2023-06-22T03:29:56;11.48;;;8.40;;
19595;SDS011;9945;46.010;8.946;2023-06-22T03:32:23;14.73;;;8.50;;
19595;SDS011;9945;46.010;8.946;2023-06-22T03:34:53;12.98;;;8.07;;
19595;SDS011;9945;46.010;8.946;2023-06-22T03:37:23;13.65;;;7.63;;
19595;SDS011;9945;46.010;8.946;2023-06-22T03:39:50;11.95;;;7.55;;
19595;SDS011;9945;46.010;8.946;2023-06-22T03:42:17;15.65;;;7.38;;
19595;SDS011;9945;46.010;8.946;2023-06-22T03:44:45;11.05;;;7.75;;
19595;SDS011;9945;46.010;8.946;2023-06-22T03:47:12;9.02;;;7.03;;
19595;SDS011;9945;46.010;8.946;2023-06-22T03:49:39;17.13;;;8.35;;
19595;SDS011;9945;46.010;8.946;2023-06-22T03:52:06;10.23;;;7.82;;
19595;SDS011;9945;46.010;8.946;2023-06-22T03:54:34;13.80;;;7.72;;
19595;SDS011;9945;46.010;8.946;2023-06-22T03:57:01;14.57;;;8.02;;
19595;SDS011;9945;46.010;8.946;2023-06-22T03:59:28;11.68;;;6.88;;
19595;SDS011;9945;46.010;8.946;2023-06-22T04:01:56;9.95;;;6.93;;
19595;SDS011;9945;46.010;8.946;2023-06-22T04:04:23;9.27;;;7.60;;
19595;SDS011;9945;46.010;8.946;2023-06-22T04:06:50;9.75;;;7.28;;
19595;SDS011;9945;46.010;8.946;2023-06-22T04:09:17;11.93;;;7.28;;
19595;SDS011;9945;46.010;8.946;2023-06-22T04:11:43;12.07;;;7.68;;
19595;SDS011;9945;46.010;8.946;2023-06-22T04:14:10;9.18;;;6.50;;
19595;SDS011;9945;46.010;8.946;2023-06-22T04:16:37;8.80;;;7.00;;
19595;SDS011;9945;46.010;8.946;2023-06-22T04:19:05;13.80;;;7.90;;
19595;SDS011;9945;46.010;8.946;2023-06-22T04:21:32;12.75;;;7.03;;
19595;SDS011;9945;46.010;8.946;2023-06-22T04:23:59;16.23;;;7.45;;
19595;SDS011;9945;46.010;8.946;2023-06-22T04:26:26;14.85;;;7.72;;
19595;SDS011;9945;46.010;8.946;2023-06-22T04:28:52;14.63;;;7.50;;
19595;SDS011;9945;46.010;8.946;2023-06-22T04:31:21;10.73;;;7.35;;
19595;SDS011;9945;46.010;8.946;2023-06-22T04:33:56;10.77;;;7.22;;
19595;SDS011;9945;46.010;8.946;2023-06-22T04:36:24;14.15;;;7.40;;
19595;SDS011;9945;46.010;8.946;2023-06-22T04:38:55;13.35;;;7.78;;
19595;SDS011;9945;46.010;8.946;2023-06-22T04:41:22;13.10;;;7.00;;
19595;SDS011;9945;46.010;8.946;2023-06-22T04:43:49;14.82;;;7.15;;
19595;SDS011;9945;46.010;8.946;2023-06-22T04:46:19;14.60;;;7.40;;
19595;SDS011;9945;46.010;8.946;2023-06-22T04:48:46;10.27;;;6.88;;
19595;SDS011;9945;46.010;8.946;2023-06-22T04:51:13;12.68;;;7.15;;
19595;SDS011;9945;46.010;8.946;2023-06-22T04:53:41;11.50;;;8.00;;
19595;SDS011;9945;46.010;8.946;2023-06-22T04:56:08;10.27;;;7.80;;
19595;SDS011;9945;46.010;8.946;2023-06-22T04:58:35;15.32;;;7.25;;
19595;SDS011;9945;46.010;8.946;2023-06-22T05:01:01;12.27;;;7.30;;
19595;SDS011;9945;46.010;8.946;2023-06-22T05:03:29;11.25;;;6.35;;
19595;SDS011;9945;46.010;8.946;2023-06-22T05:05:55;14.43;;;7.60;;
19595;SDS011;9945;46.010;8.946;2023-06-22T05:08:22;13.82;;;7.53;;
19595;SDS011;9945;46.010;8.946;2023-06-22T05:10:53;12.43;;;7.78;;
19595;SDS011;9945;46.010;8.946;2023-06-22T05:13:19;13.85;;;7.70;;
19595;SDS011;9945;46.010;8.946;2023-06-22T05:15:46;11.05;;;7.70;;
19595;SDS011;9945;46.010;8.946;2023-06-22T05:18:13;12.70;;;7.00;;
19595;SDS011;9945;46.010;8.946;2023-06-22T05:20:40;12.18;;;7.07;;
19595;SDS011;9945;46.010;8.946;2023-06-22T05:23:07;13.90;;;7.55;;
19595;SDS011;9945;46.010;8.946;2023-06-22T05:25:34;15.13;;;8.07;;
19595;SDS011;9945;46.010;8.946;2023-06-22T05:28:03;12.60;;;7.05;;
19595;SDS011;9945;46.010;8.946;2023-06-22T05:30:36;12.07;;;7.53;;
19595;SDS011;9945;46.010;8.946;2023-06-22T05:33:03;12.27;;;7.90;;
19595;SDS011;9945;46.010;8.946;2023-06-22T05:35:30;15.38;;;7.85;;
19595;SDS011;9945;46.010;8.946;2023-06-22T05:37:57;11.05;;;7.88;;
19595;SDS011;9945;46.010;8.946;2023-06-22T05:40:24;11.95;;;7.05;;
19595;SDS011;9945;46.010;8.946;2023-06-22T05:42:52;15.20;;;7.95;;
19595;SDS011;9945;46.010;8.946;2023-06-22T05:45:20;9.35;;;7.25;;
19595;SDS011;9945;46.010;8.946;2023-06-22T05:47:47;13.30;;;7.57;;
19595;SDS011;9945;46.010;8.946;2023-06-22T05:50:14;12.23;;;6.95;;
19595;SDS011;9945;46.010;8.946;2023-06-22T05:52:40;13.38;;;7.32;;
19595;SDS011;9945;46.010;8.946;2023-06-22T05:55:08;10.10;;;7.38;;
19595;SDS011;9945;46.010;8.946;2023-06-22T05:57:35;11.35;;;7.40;;
19595;SDS011;9945;46.010;8.946;2023-06-22T06:00:02;13.05;;;7.80;;
19595;SDS011;9945;46.010;8.946;2023-06-22T06:02:33;12.25;;;6.80;;
19595;SDS011;9945;46.010;8.946;2023-06-22T06:05:00;10.70;;;7.70;;
19595;SDS011;9945;46.010;8.946;2023-06-22T06:07:28;13.25;;;7.53;;
19595;SDS011;9945;46.010;8.946;2023-06-22T06:09:55;12.95;;;6.93;;
19595;SDS011;9945;46.010;8.946;2023-06-22T06:12:22;17.75;;;7.63;;
19595;SDS011;9945;46.010;8.946;2023-06-22T06:14:49;13.10;;;6.97;;
19595;SDS011;9945;46.010;8.946;2023-06-22T06:17:16;10.35;;;6.55;;
19595;SDS011;9945;46.010;8.946;2023-06-22T06:19:44;10.57;;;6.75;;
19595;SDS011;9945;46.010;8.946;2023-06-22T06:22:11;11.50;;;7.25;;
19595;SDS011;9945;46.010;8.946;2023-06-22T06:24:38;15.73;;;6.70;;
19595;SDS011;9945;46.010;8.946;2023-06-22T06:27:05;10.93;;;6.97;;
19595;SDS011;9945;46.010;8.946;2023-06-22T06:29:32;11.38;;;7.38;;
19595;SDS011;9945;46.010;8.946;2023-06-22T06:31:59;11.35;;;6.85;;
19595;SDS011;9945;46.010;8.946;2023-06-22T06:34:26;10.63;;;6.80;;
19595;SDS011;9945;46.010;8.946;2023-06-22T06:36:54;18.67;;;7.32;;
19595;SDS011;9945;46.010;8.946;2023-06-22T06:39:20;20.70;;;7.22;;
19595;SDS011;9945;46.010;8.946;2023-06-22T06:41:47;12.93;;;7.10;;
19595;SDS011;9945;46.010;8.946;2023-06-22T06:44:14;10.52;;;6.05;;
19595;SDS011;9945;46.010;8.946;2023-06-22T06:46:41;9.75;;;6.97;;
19595;SDS011;9945;46.010;8.946;2023-06-22T06:49:08;11.32;;;6.68;;
19595;SDS011;9945;46.010;8.946;2023-06-22T06:51:35;12.38;;;6.45;;
19595;SDS011;9945;46.010;8.946;2023-06-22T06:54:03;18.50;;;7.15;;
19595;SDS011;9945;46.010;8.946;2023-06-22T06:56:30;10.05;;;6.80;;
19595;SDS011;9945;46.010;8.946;2023-06-22T06:58:58;14.50;;;7.45;;
19595;SDS011;9945;46.010;8.946;2023-06-22T07:01:25;9.93;;;7.47;;
19595;SDS011;9945;46.010;8.946;2023-06-22T07:03:52;9.55;;;6.80;;
19595;SDS011;9945;46.010;8.946;2023-06-22T07:06:18;11.45;;;7.03;;
19595;SDS011;9945;46.010;8.946;2023-06-22T07:08:45;11.13;;;7.25;;
19595;SDS011;9945;46.010;8.946;2023-06-22T07:11:13;13.95;;;7.75;;
19595;SDS011;9945;46.010;8.946;2023-06-22T07:13:40;19.70;;;7.80;;
19595;SDS011;9945;46.010;8.946;2023-06-22T07:16:07;9.57;;;7.28;;
19595;SDS011;9945;46.010;8.946;2023-06-22T07:18:34;12.63;;;7.38;;
19595;SDS011;9945;46.010;8.946;2023-06-22T07:21:01;17.98;;;8.50;;
19595;SDS011;9945;46.010;8.946;2023-06-22T07:23:29;11.55;;;7.15;;
19595;SDS011;9945;46.010;8.946;2023-06-22T07:25:55;16.90;;;7.82;;
19595;SDS011;9945;46.010;8.946;2023-06-22T07:28:24;14.02;;;7.38;;
19595;SDS011;9945;46.010;8.946;2023-06-22T07:30:50;11.93;;;7.38;;
19595;SDS011;9945;46.010;8.946;2023-06-22T07:33:17;17.45;;;7.53;;
19595;SDS011;9945;46.010;8.946;2023-06-22T07:35:44;12.77;;;7.15;;
19595;SDS011;9945;46.010;8.946;2023-06-22T07:38:12;10.68;;;7.03;;
19595;SDS011;9945;46.010;8.946;2023-06-22T07:40:39;17.23;;;7.82;;
19595;SDS011;9945;46.010;8.946;2023-06-22T07:43:07;19.27;;;8.05;;
19595;SDS011;9945;46.010;8.946;2023-06-22T07:45:35;13.43;;;7.65;;
19595;SDS011;9945;46.010;8.946;2023-06-22T07:48:05;16.58;;;8.07;;
19595;SDS011;9945;46.010;8.946;2023-06-22T07:50:32;23.50;;;9.15;;
19595;SDS011;9945;46.010;8.946;2023-06-22T07:52:59;16.63;;;8.02;;
19595;SDS011;9945;46.010;8.946;2023-06-22T07:55:26;19.35;;;7.60;;
19595;SDS011;9945;46.010;8.946;2023-06-22T07:57:53;15.57;;;7.72;;
19595;SDS011;9945;46.010;8.946;2023-06-22T08:00:20;26.70;;;8.10;;
19595;SDS011;9945;46.010;8.946;2023-06-22T08:02:48;10.48;;;7.28;;
19595;SDS011;9945;46.010;8.946;2023-06-22T08:05:15;16.00;;;8.52;;
19595;SDS011;9945;46.010;8.946;2023-06-22T08:07:42;11.80;;;6.88;;
19595;SDS011;9945;46.010;8.946;2023-06-22T08:10:10;15.65;;;7.80;;
19595;SDS011;9945;46.010;8.946;2023-06-22T08:12:37;14.50;;;7.07;;
19595;SDS011;9945;46.010;8.946;2023-06-22T08:15:05;15.98;;;7.70;;
19595;SDS011;9945;46.010;8.946;2023-06-22T08:17:34;15.15;;;7.45;;
19595;SDS011;9945;46.010;8.946;2023-06-22T08:20:03;18.50;;;7.55;;
19595;SDS011;9945;46.010;8.946;2023-06-22T08:22:34;8.77;;;7.25;;
19595;SDS011;9945;46.010;8.946;2023-06-22T08:25:01;13.20;;;8.13;;
19595;SDS011;9945;46.010;8.946;2023-06-22T08:27:29;19.52;;;8.65;;
19595;SDS011;9945;46.010;8.946;2023-06-22T08:29:57;22.63;;;8.38;;
19595;SDS011;9945;46.010;8.946;2023-06-22T08:32:24;16.35;;;7.75;;
19595;SDS011;9945;46.010;8.946;2023-06-22T08:34:51;15.00;;;7.80;;
19595;SDS011;9945;46.010;8.946;2023-06-22T08:37:20;20.02;;;8.73;;
19595;SDS011;9945;46.010;8.946;2023-06-22T08:39:55;12.85;;;7.50;;
19595;SDS011;9945;46.010;8.946;2023-06-22T08:42:22;19.73;;;8.05;;
19595;SDS011;9945;46.010;8.946;2023-06-22T08:44:50;21.80;;;8.82;;
19595;SDS011;9945;46.010;8.946;2023-06-22T08:47:18;16.30;;;7.78;;
19595;SDS011;9945;46.010;8.946;2023-06-22T08:49:46;11.55;;;7.78;;
19595;SDS011;9945;46.010;8.946;2023-06-22T08:52:13;15.25;;;7.88;;
19595;SDS011;9945;46.010;8.946;2023-06-22T08:54:41;15.20;;;7.57;;
19595;SDS011;9945;46.010;8.946;2023-06-22T08:57:08;18.10;;;8.02;;
19595;SDS011;9945;46.010;8.946;2023-06-22T08:59:35;13.07;;;7.13;;
19595;SDS011;9945;46.010;8.946;2023-06-22T09:02:02;11.80;;;7.15;;
19595;SDS011;9945;46.010;8.946;2023-06-22T09:04:30;17.30;;;7.82;;
19595;SDS011;9945;46.010;8.946;2023-06-22T09:06:59;15.45;;;7.28;;
19595;SDS011;9945;46.010;8.946;2023-06-22T09:09:26;14.77;;;7.38;;
19595;SDS011;9945;46.010;8.946;2023-06-22T09:11:54;21.58;;;7.40;;
19595;SDS011;9945;46.010;8.946;2023-06-22T09:14:21;15.07;;;7.32;;
19595;SDS011;9945;46.010;8.946;2023-06-22T09:16:48;16.13;;;7.47;;
19595;SDS011;9945;46.010;8.946;2023-06-22T09:19:15;14.38;;;7.68;;
19595;SDS011;9945;46.010;8.946;2023-06-22T09:21:42;16.58;;;7.68;;
19595;SDS011;9945;46.010;8.946;2023-06-22T09:24:09;17.55;;;8.30;;
19595;SDS011;9945;46.010;8.946;2023-06-22T09:26:36;17.55;;;7.78;;
19595;SDS011;9945;46.010;8.946;2023-06-22T09:29:05;15.20;;;7.28;;
19595;SDS011;9945;46.010;8.946;2023-06-22T09:31:32;25.55;;;7.63;;
19595;SDS011;9945;46.010;8.946;2023-06-22T09:33:59;18.05;;;7.50;;
19595;SDS011;9945;46.010;8.946;2023-06-22T09:36:26;23.08;;;7.65;;
19595;SDS011;9945;46.010;8.946;2023-06-22T09:38:53;18.45;;;7.72;;
19595;SDS011;9945;46.010;8.946;2023-06-22T09:41:23;16.38;;;7.63;;
19595;SDS011;9945;46.010;8.946;2023-06-22T09:43:50;16.15;;;7.13;;
19595;SDS011;9945;46.010;8.946;2023-06-22T09:46:19;23.05;;;7.13;;
19595;SDS011;9945;46.010;8.946;2023-06-22T09:48:47;17.13;;;7.82;;
19595;SDS011;9945;46.010;8.946;2023-06-22T09:51:14;17.98;;;7.35;;
19595;SDS011;9945;46.010;8.946;2023-06-22T09:53:41;15.05;;;7.35;;
19595;SDS011;9945;46.010;8.946;2023-06-22T09:56:09;16.85;;;7.38;;
19595;SDS011;9945;46.010;8.946;2023-06-22T09:58:39;18.10;;;7.18;;
19595;SDS011;9945;46.010;8.946;2023-06-22T10:01:06;15.48;;;7.80;;
19595;SDS011;9945;46.010;8.946;2023-06-22T10:03:35;14.15;;;7.47;;
19595;SDS011;9945;46.010;8.946;2023-06-22T10:06:01;12.82;;;6.80;;
19595;SDS011;9945;46.010;8.946;2023-06-22T10:08:28;12.52;;;7.18;;
19595;SDS011;9945;46.010;8.946;2023-06-22T10:10:55;17.08;;;7.82;;
19595;SDS011;9945;46.010;8.946;2023-06-22T10:13:22;13.02;;;7.10;;
19595;SDS011;9945;46.010;8.946;2023-06-22T10:15:49;16.35;;;6.95;;
19595;SDS011;9945;46.010;8.946;2023-06-22T10:18:17;12.90;;;6.70;;
19595;SDS011;9945;46.010;8.946;2023-06-22T10:20:47;11.25;;;6.82;;
19595;SDS011;9945;46.010;8.946;2023-06-22T10:23:15;12.50;;;6.88;;
19595;SDS011;9945;46.010;8.946;2023-06-22T10:25:42;12.23;;;6.95;;
19595;SDS011;9945;46.010;8.946;2023-06-22T10:28:09;15.70;;;7.20;;
19595;SDS011;9945;46.010;8.946;2023-06-22T10:30:37;18.90;;;7.20;;
19595;SDS011;9945;46.010;8.946;2023-06-22T10:33:06;19.27;;;7.90;;
19595;SDS011;9945;46.010;8.946;2023-06-22T10:35:33;10.65;;;6.65;;
19595;SDS011;9945;46.010;8.946;2023-06-22T10:38:01;11.70;;;6.13;;
19595;SDS011;9945;46.010;8.946;2023-06-22T10:40:28;9.27;;;6.22;;
19595;SDS011;9945;46.010;8.946;2023-06-22T10:42:55;18.27;;;6.63;;
19595;SDS011;9945;46.010;8.946;2023-06-22T10:45:22;12.20;;;6.15;;
19595;SDS011;9945;46.010;8.946;2023-06-22T10:47:49;7.47;;;6.13;;
19595;SDS011;9945;46.010;8.946;2023-06-22T10:50:16;10.85;;;6.65;;
19595;SDS011;9945;46.010;8.946;2023-06-22T10:52:45;16.25;;;7.25;;
19595;SDS011;9945;46.010;8.946;2023-06-22T10:55:13;15.68;;;7.13;;
19595;SDS011;9945;46.010;8.946;2023-06-22T10:57:40;12.23;;;6.55;;
19595;SDS011;9945;46.010;8.946;2023-06-22T11:00:09;11.13;;;6.90;;
19595;SDS011;9945;46.010;8.946;2023-06-22T11:02:37;12.70;;;6.80;;
19595;SDS011;9945;46.010;8.946;2023-06-22T11:05:04;15.52;;;6.28;;
19595;SDS011;9945;46.010;8.946;2023-06-22T11:07:32;18.48;;;7.32;;
19595;SDS011;9945;46.010;8.946;2023-06-22T11:09:59;17.98;;;6.65;;
19595;SDS011;9945;46.010;8.946;2023-06-22T11:12:27;12.10;;;6.35;;
19595;SDS011;9945;46.010;8.946;2023-06-22T11:14:54;14.55;;;5.72;;
19595;SDS011;9945;46.010;8.946;2023-06-22T11:17:22;16.02;;;5.90;;
19595;SDS011;9945;46.010;8.946;2023-06-22T11:19:49;11.20;;;5.82;;
19595;SDS011;9945;46.010;8.946;2023-06-22T11:22:16;24.90;;;7.32;;
19595;SDS011;9945;46.010;8.946;2023-06-22T11:24:42;15.20;;;6.93;;
19595;SDS011;9945;46.010;8.946;2023-06-22T11:27:09;16.85;;;7.13;;
19595;SDS011;9945;46.010;8.946;2023-06-22T11:29:38;20.42;;;8.65;;
19595;SDS011;9945;46.010;8.946;2023-06-22T11:32:05;11.30;;;6.93;;
19595;SDS011;9945;46.010;8.946;2023-06-22T11:34:33;15.23;;;6.93;;
19595;SDS011;9945;46.010;8.946;2023-06-22T11:37:00;14.00;;;7.47;;
19595;SDS011;9945;46.010;8.946;2023-06-22T11:39:27;16.17;;;7.10;;
19595;SDS011;9945;46.010;8.946;2023-06-22T11:41:54;15.77;;;6.63;;
19595;SDS011;9945;46.010;8.946;2023-06-22T11:44:20;15.38;;;7.13;;
19595;SDS011;9945;46.010;8.946;2023-06-22T11:46:49;8.07;;;5.70;;
19595;SDS011;9945;46.010;8.946;2023-06-22T11:49:15;17.45;;;7.43;;
19595;SDS011;9945;46.010;8.946;2023-06-22T11:51:42;21.85;;;7.07;;
19595;SDS011;9945;46.010;8.946;2023-06-22T11:54:09;14.00;;;5.60;;
19595;SDS011;9945;46.010;8.946;2023-06-22T11:56:36;11.48;;;7.53;;
19595;SDS011;9945;46.010;8.946;2023-06-22T11:59:03;9.35;;;4.72;;
19595;SDS011;9945;46.010;8.946;2023-06-22T12:01:30;15.38;;;5.82;;
19595;SDS011;9945;46.010;8.946;2023-06-22T12:03:59;17.85;;;5.50;;
19595;SDS011;9945;46.010;8.946;2023-06-22T12:06:26;12.07;;;6.22;;
19595;SDS011;9945;46.010;8.946;2023-06-22T12:08:53;18.00;;;5.88;;
19595;SDS011;9945;46.010;8.946;2023-06-22T12:11:20;14.35;;;6.18;;
19595;SDS011;9945;46.010;8.946;2023-06-22T12:13:47;13.68;;;6.10;;
19595;SDS011;9945;46.010;8.946;2023-06-22T12:16:13;11.93;;;5.82;;
19595;SDS011;9945;46.010;8.946;2023-06-22T12:18:40;19.42;;;6.50;;
19595;SDS011;9945;46.010;8.946;2023-06-22T12:21:09;9.10;;;5.70;;
19595;SDS011;9945;46.010;8.946;2023-06-22T12:23:35;11.32;;;5.47;;
19595;SDS011;9945;46.010;8.946;2023-06-22T12:26:02;10.60;;;5.68;;
19595;SDS011;9945;46.010;8.946;2023-06-22T12:28:29;16.65;;;6.35;;
19595;SDS011;9945;46.010;8.946;2023-06-22T12:30:56;15.32;;;6.53;;
19595;SDS011;9945;46.010;8.946;2023-06-22T12:33:23;11.20;;;5.75;;
19595;SDS011;9945;46.010;8.946;2023-06-22T12:35:49;11.43;;;5.60;;
19595;SDS011;9945;46.010;8.946;2023-06-22T12:38:18;9.10;;;5.65;;
19595;SDS011;9945;46.010;8.946;2023-06-22T12:40:44;10.85;;;5.63;;
19595;SDS011;9945;46.010;8.946;2023-06-22T12:43:12;15.95;;;5.97;;
19595;SDS011;9945;46.010;8.946;2023-06-22T12:45:39;11.68;;;5.13;;
19595;SDS011;9945;46.010;8.946;2023-06-22T12:48:06;19.00;;;5.70;;
19595;SDS011;9945;46.010;8.946;2023-06-22T12:50:33;10.73;;;5.63;;
19595;SDS011;9945;46.010;8.946;2023-06-22T12:53:00;10.13;;;5.50;;
19595;SDS011;9945;46.010;8.946;2023-06-22T12:55:30;12.27;;;5.75;;
19595;SDS011;9945;46.010;8.946;2023-06-22T12:57:57;12.50;;;5.57;;
19595;SDS011;9945;46.010;8.946;2023-06-22T13:00:24;12.55;;;5.25;;
19595;SDS011;9945;46.010;8.946;2023-06-22T13:02:51;13.38;;;5.78;;
19595;SDS011;9945;46.010;8.946;2023-06-22T13:05:18;12.38;;;5.30;;
19595;SDS011;9945;46.010;8.946;2023-06-22T13:07:45;8.50;;;5.40;;
19595;SDS011;9945;46.010;8.946;2023-06-22T13:10:12;13.88;;;5.80;;
19595;SDS011;9945;46.010;8.946;2023-06-22T13:12:40;9.85;;;5.70;;
19595;SDS011;9945;46.010;8.946;2023-06-22T13:15:07;11.55;;;5.20;;
19595;SDS011;9945;46.010;8.946;2023-06-22T13:17:34;21.40;;;5.45;;
19595;SDS011;9945;46.010;8.946;2023-06-22T13:20:01;16.00;;;6.45;;
19595;SDS011;9945;46.010;8.946;2023-06-22T13:22:30;12.70;;;5.80;;
19595;SDS011;9945;46.010;8.946;2023-06-22T13:24:58;12.43;;;6.22;;
19595;SDS011;9945;46.010;8.946;2023-06-22T13:27:26;11.98;;;6.10;;
19595;SDS011;9945;46.010;8.946;2023-06-22T13:29:54;13.07;;;5.28;;
19595;SDS011;9945;46.010;8.946;2023-06-22T13:32:21;13.02;;;5.90;;
19595;SDS011;9945;46.010;8.946;2023-06-22T13:34:48;13.13;;;6.47;;
19595;SDS011;9945;46.010;8.946;2023-06-22T13:37:15;14.57;;;5.72;;
19595;SDS011;9945;46.010;8.946;2023-06-22T13:39:41;15.88;;;6.05;;
19595;SDS011;9945;46.010;8.946;2023-06-22T13:42:08;11.15;;;5.93;;
19595;SDS011;9945;46.010;8.946;2023-06-22T13:44:35;11.32;;;6.13;;
19595;SDS011;9945;46.010;8.946;2023-06-22T13:47:04;18.48;;;6.47;;
19595;SDS011;9945;46.010;8.946;2023-06-22T13:49:32;14.82;;;6.38;;
19595;SDS011;9945;46.010;8.946;2023-06-22T13:51:59;12.27;;;5.55;;
19595;SDS011;9945;46.010;8.946;2023-06-22T13:54:26;13.52;;;6.28;;
19595;SDS011;9945;46.010;8.946;2023-06-22T13:56:53;19.45;;;6.40;;
19595;SDS011;9945;46.010;8.946;2023-06-22T13:59:20;15.07;;;5.38;;
19595;SDS011;9945;46.010;8.946;2023-06-22T14:01:46;17.63;;;5.85;;
19595;SDS011;9945;46.010;8.946;2023-06-22T14:04:15;11.95;;;6.28;;
19595;SDS011;9945;46.010;8.946;2023-06-22T14:06:41;8.35;;;5.60;;
19595;SDS011;9945;46.010;8.946;2023-06-22T14:09:08;7.07;;;5.20;;
19595;SDS011;9945;46.010;8.946;2023-06-22T14:11:35;10.98;;;6.07;;
19595;SDS011;9945;46.010;8.946;2023-06-22T14:14:02;11.82;;;5.30;;
19595;SDS011;9945;46.010;8.946;2023-06-22T14:16:29;12.98;;;5.97;;
19595;SDS011;9945;46.010;8.946;2023-06-22T14:18:56;16.52;;;6.38;;
19595;SDS011;9945;46.010;8.946;2023-06-22T14:21:25;11.05;;;5.93;;
19595;SDS011;9945;46.010;8.946;2023-06-22T14:23:52;10.60;;;5.88;;
19595;SDS011;9945;46.010;8.946;2023-06-22T14:26:19;14.63;;;5.95;;
19595;SDS011;9945;46.010;8.946;2023-06-22T14:28:47;15.32;;;6.70;;
19595;SDS011;9945;46.010;8.946;2023-06-22T14:31:15;15.68;;;6.75;;
19595;SDS011;9945;46.010;8.946;2023-06-22T14:33:46;8.07;;;5.93;;
19595;SDS011;9945;46.010;8.946;2023-06-22T14:36:14;10.95;;;5.93;;
19595;SDS011;9945;46.010;8.946;2023-06-22T14:38:42;14.30;;;6.60;;
19595;SDS011;9945;46.010;8.946;2023-06-22T14:41:09;13.32;;;6.47;;
19595;SDS011;9945;46.010;8.946;2023-06-22T14:43:36;15.77;;;6.47;;
19595;SDS011;9945;46.010;8.946;2023-06-22T14:46:03;12.70;;;6.55;;
19595;SDS011;9945;46.010;8.946;2023-06-22T14:48:29;16.05;;;6.72;;
19595;SDS011;9945;46.010;8.946;2023-06-22T14:50:56;14.48;;;6.88;;
19595;SDS011;9945;46.010;8.946;2023-06-22T14:53:25;13.88;;;6.70;;
19595;SDS011;9945;46.010;8.946;2023-06-22T14:55:53;12.68;;;7.00;;